Mtm Penang — 9V2994 — position and weather

sailwx.info

Track history (hours):
 
Tides and Currents Weather Stations Pressure Air Temp Water Temp Dewpoint Dewpoint Depression Visibility Wind Speed Wind Dir Waves Ship Positions

Mtm Penang

Last reported at 2017-Sep-26 08:27 UTC. Time now 2017-Oct-22 15:39 UTC.
Position N 33°27' W 012°59'.
Warning: this ship's position is 26 days out of date.

Length 150 m; draft 10.2 m.

Type: Tanker. MMSI: 565871000.

Date/timePositionNaut miles runAvg speedWind from/ knotsBaromVisibWave heightAir tempDewpointWater temp
2017-Sep-26 08:27N 33°27' W 012°59'2213.2
2017-Sep-26 06:47N 33°39' W 012°37'413.0
2017-Sep-26 06:30N 33°41' W 012°34'6313.1
2017-Sep-26 01:42N 34°16' W 011°31'313.1
2017-Sep-26 01:30N 34°18' W 011°29'613.0
2017-Sep-26 01:00N 34°21' W 011°22'612.9
2017-Sep-26 00:30N 34°25' W 011°16'812.7
2017-Sep-25 23:54N 34°29' W 011°08'512.7
2017-Sep-25 23:30N 34°32' W 011°03'612.6
2017-Sep-25 23:00N 34°36' W 010°57'612.7
2017-Sep-25 22:30N 34°40' W 010°51'712.7
2017-Sep-25 22:00N 34°43' W 010°44'612.9
2017-Sep-25 21:30N 34°47' W 010°38'713.0
2017-Sep-25 21:00N 34°51' W 010°31'713.0
2017-Sep-25 20:30N 34°54' W 010°25'712.9
2017-Sep-25 20:00N 34°58' W 010°18'712.8
2017-Sep-25 19:27N 35°02' W 010°11'612.6
2017-Sep-25 19:00N 35°05' W 010°05'612.7
2017-Sep-25 18:30N 35°08' W 009°58'613.0
2017-Sep-25 18:00N 35°11' W 009°51'912.7
2017-Sep-25 17:17N 35°16' W 009°42'4812.9
2017-Sep-25 13:31N 35°44' W 008°53'113.1
2017-Sep-25 13:29N 35°44' W 008°52'613.1
2017-Sep-25 13:00N 35°47' W 008°46'713.2
2017-Sep-25 12:27N 35°51' W 008°38'1013.1
2017-Sep-25 11:42N 35°57' W 008°28'212.8
2017-Sep-25 11:30N 35°58' W 008°26'1112.6
2017-Sep-25 10:39N 36°04' W 008°14'2412.8
2017-Sep-25 08:45N 36°17' W 007°49'513.2
2017-Sep-25 08:24N 36°19' W 007°44'3013.0
2017-Sep-25 06:06N 36°36' W 007°13'113.1
2017-Sep-25 06:00N 36°36' W 007°12'1313.0
2017-Sep-25 05:01N 36°46' W 007°02'713.6
2017-Sep-25 04:31N 36°52' W 006°58'713.3
2017-Sep-25 03:58N 36°59' W 006°55'511.6
2017-Sep-25 03:30N 37°04' W 006°53'  
2017-Sep-21 17:45N 36°13' W 002°50'313.8
2017-Sep-21 17:30N 36°13' W 002°46'814.0
2017-Sep-21 16:56N 36°13' W 002°36'614.3
2017-Sep-21 16:30N 36°14' W 002°28'714.0
2017-Sep-21 15:59N 36°14' W 002°19'714.0
2017-Sep-21 15:30N 36°13' W 002°11'7013.5
2017-Sep-21 10:19N 36°34' W 000°48'3714.2
2017-Sep-21 07:41N 36°50' W 000°06'213.8
2017-Sep-21 07:30N 36°52' W 000°03'713.9
2017-Sep-21 07:00N 36°55' E 000°04'713.8
2017-Sep-21 06:30N 36°58' E 000°12'713.7
2017-Sep-21 06:00N 37°01' E 000°20'713.6
2017-Sep-21 05:30N 37°02' E 000°28'713.6
2017-Sep-21 05:00N 37°03' E 000°37'713.8
2017-Sep-21 04:30N 37°03' E 000°46'714.1
2017-Sep-21 04:00N 37°04' E 000°54'714.1
2017-Sep-21 03:30N 37°04' E 001°03'714.1
2017-Sep-21 03:00N 37°04' E 001°12'714.2
2017-Sep-21 02:31N 37°05' E 001°21'814.2
2017-Sep-21 01:57N 37°06' E 001°31'814.2
2017-Sep-21 01:24N 37°07' E 001°40'614.1
2017-Sep-21 00:59N 37°08' E 001°48'714.2
2017-Sep-21 00:29N 37°09' E 001°56'2314.0
2017-Sep-20 22:50N 37°12' E 002°25'46610.8
2017-Sep-19 03:33N 35°38' E 011°53'  
2017-Sep-16 11:35N 34°44' E 010°46'0 0.0
2017-Sep-16 11:26N 34°44' E 010°46'  
Track history (hours):
 
Tides and Currents Weather Stations Pressure Air Temp Water Temp Dewpoint Dewpoint Depression Visibility Wind Speed Wind Dir Waves Ship Positions

Mtm Penang

Last reported at 2017-Sep-26 08:27 UTC. Time now 2017-Oct-22 15:39 UTC.
Position N 33°27' W 012°59'.
Warning: this ship's position is 26 days out of date.

Length 150 m; draft 10.2 m.

Type: Tanker. MMSI: 565871000.

Date/timePositionNaut miles runAvg speedWind from/ knotsBaromVisibWave heightAir tempDewpointWater temp
2017-Sep-26 08:27N 33°27' W 012°59'2213.2
2017-Sep-26 06:47N 33°39' W 012°37'413.0
2017-Sep-26 06:30N 33°41' W 012°34'6313.1
2017-Sep-26 01:42N 34°16' W 011°31'313.1
2017-Sep-26 01:30N 34°18' W 011°29'613.0
2017-Sep-26 01:00N 34°21' W 011°22'612.9
2017-Sep-26 00:30N 34°25' W 011°16'812.7
2017-Sep-25 23:54N 34°29' W 011°08'512.7
2017-Sep-25 23:30N 34°32' W 011°03'612.6
2017-Sep-25 23:00N 34°36' W 010°57'612.7
2017-Sep-25 22:30N 34°40' W 010°51'712.7
2017-Sep-25 22:00N 34°43' W 010°44'612.9
2017-Sep-25 21:30N 34°47' W 010°38'713.0
2017-Sep-25 21:00N 34°51' W 010°31'713.0
2017-Sep-25 20:30N 34°54' W 010°25'712.9
2017-Sep-25 20:00N 34°58' W 010°18'712.8
2017-Sep-25 19:27N 35°02' W 010°11'612.6
2017-Sep-25 19:00N 35°05' W 010°05'612.7
2017-Sep-25 18:30N 35°08' W 009°58'613.0
2017-Sep-25 18:00N 35°11' W 009°51'912.7
2017-Sep-25 17:17N 35°16' W 009°42'4812.9
2017-Sep-25 13:31N 35°44' W 008°53'113.1
2017-Sep-25 13:29N 35°44' W 008°52'613.1
2017-Sep-25 13:00N 35°47' W 008°46'713.2
2017-Sep-25 12:27N 35°51' W 008°38'1013.1
2017-Sep-25 11:42N 35°57' W 008°28'212.8
2017-Sep-25 11:30N 35°58' W 008°26'1112.6
2017-Sep-25 10:39N 36°04' W 008°14'2412.8
2017-Sep-25 08:45N 36°17' W 007°49'513.2
2017-Sep-25 08:24N 36°19' W 007°44'3013.0
2017-Sep-25 06:06N 36°36' W 007°13'113.1
2017-Sep-25 06:00N 36°36' W 007°12'1313.0
2017-Sep-25 05:01N 36°46' W 007°02'713.6
2017-Sep-25 04:31N 36°52' W 006°58'713.3
2017-Sep-25 03:58N 36°59' W 006°55'511.6
2017-Sep-25 03:30N 37°04' W 006°53'  
2017-Sep-21 17:45N 36°13' W 002°50'313.8
2017-Sep-21 17:30N 36°13' W 002°46'814.0
2017-Sep-21 16:56N 36°13' W 002°36'614.3
2017-Sep-21 16:30N 36°14' W 002°28'714.0
2017-Sep-21 15:59N 36°14' W 002°19'714.0
2017-Sep-21 15:30N 36°13' W 002°11'7013.5
2017-Sep-21 10:19N 36°34' W 000°48'3714.2
2017-Sep-21 07:41N 36°50' W 000°06'213.8
2017-Sep-21 07:30N 36°52' W 000°03'713.9
2017-Sep-21 07:00N 36°55' E 000°04'713.8
2017-Sep-21 06:30N 36°58' E 000°12'713.7
2017-Sep-21 06:00N 37°01' E 000°20'713.6
2017-Sep-21 05:30N 37°02' E 000°28'713.6
2017-Sep-21 05:00N 37°03' E 000°37'713.8
2017-Sep-21 04:30N 37°03' E 000°46'714.1
2017-Sep-21 04:00N 37°04' E 000°54'714.1
2017-Sep-21 03:30N 37°04' E 001°03'714.1
2017-Sep-21 03:00N 37°04' E 001°12'714.2
2017-Sep-21 02:31N 37°05' E 001°21'814.2
2017-Sep-21 01:57N 37°06' E 001°31'814.2
2017-Sep-21 01:24N 37°07' E 001°40'614.1
2017-Sep-21 00:59N 37°08' E 001°48'714.2
2017-Sep-21 00:29N 37°09' E 001°56'2314.0
2017-Sep-20 22:50N 37°12' E 002°25'46610.8
2017-Sep-19 03:33N 35°38' E 011°53'  
2017-Sep-16 11:35N 34°44' E 010°46'0 0.0
2017-Sep-16 11:26N 34°44' E 010°46'  

Dump ship's entire track history